PWSweather.com
Personal Weather Stations
Station Observations
ISTOCKPO4
Cheadle HulmeGB SK8 6NZ

Cheadle HulmeGB SK8 6NZ

Lat: 53.363783, Lon: -2.1948438

Elevation: 261

Station Type: Davis VP2 with Daytime FARS

http://www.cheadlehulmeweather.co.uk

High Low Average
Temperature 43.7°F6.5°F 34.5°F1.4°F 39.6°F4.2°F
Dew Point 41.1°F5.1°F 32.7°F0.4°F 37.6°F3.1°F
Winds 12.0 mph S19.3 mph S 2.0 mph 3.2 mph 6.5 mph 10.5 mph
Wind Gusts 24.0 mph38.6 mph 6.0 mph9.7 mph 13.0 mph20.9 mph
Humidity 95% 88% 92%
Pressure 29.55 in1000.70 in 29.14 in986.80 in -
Precipitation 1.55 in39.40 in - -
Hour Temp Dew Point Humidity Winds Wind Gusts Pressure Precip Precip Rate Daily Precip Total
12:00 AM 38.7°F3.7°C 37.1°F2.8°C 94% 8.0 mph S12.9 kmh S 14.0 mph22.5 kmh 29.55 in1000.7 mb 0.00 in0.0 mm 0.00 in0.0 mm 0.00 in0.0 mm
12:15 AM 38.7°F3.7°C 37.1°F2.8°C 94% 8.0 mph S12.9 kmh S 14.0 mph22.5 kmh 29.54 in1000.3 mb 0.00 in0.0 mm 0.00 in0.0 mm 0.00 in0.0 mm
12:30 AM 38.7°F3.7°C 37.1°F2.8°C 94% 6.0 mph S9.7 kmh S 12.0 mph19.3 kmh 29.54 in1000.3 mb 0.00 in0.0 mm 0.00 in0.0 mm 0.00 in0.0 mm
12:45 AM 38.5°F3.6°C 36.9°F2.7°C 94% 7.0 mph S11.3 kmh S 11.0 mph17.7 kmh 29.54 in1000.3 mb 0.00 in0.0 mm 0.00 in0.0 mm 0.00 in0.0 mm
01:00 AM 38.1°F3.4°C 36.5°F2.5°C 94% 6.0 mph S9.7 kmh S 11.0 mph17.7 kmh 29.54 in1000.3 mb 0.00 in0.0 mm 0.00 in0.0 mm 0.00 in0.0 mm
01:15 AM 38.1°F3.4°C 36.5°F2.5°C 94% 7.0 mph S11.3 kmh S 12.0 mph19.3 kmh 29.54 in1000.3 mb 0.00 in0.0 mm 0.00 in0.0 mm 0.00 in0.0 mm
01:30 AM 38.1°F3.4°C 36.5°F2.5°C 94% 7.0 mph S11.3 kmh S 11.0 mph17.7 kmh 29.53 in1000.0 mb 0.00 in0.0 mm 0.00 in0.0 mm 0.00 in0.0 mm
01:45 AM 38.5°F3.6°C 37.2°F2.9°C 95% 5.0 mph S8.0 kmh S 10.0 mph16.1 kmh 29.52 in999.7 mb 0.00 in0.0 mm 0.00 in0.0 mm 0.00 in0.0 mm
02:00 AM 38.1°F3.4°C 36.8°F2.7°C 95% 6.0 mph S9.7 kmh S 11.0 mph17.7 kmh 29.52 in999.7 mb 0.00 in0.0 mm 0.00 in0.0 mm 0.00 in0.0 mm
02:15 AM 38.1°F3.4°C 36.5°F2.5°C 94% 6.0 mph S9.7 kmh S 10.0 mph16.1 kmh 29.52 in999.7 mb 0.00 in0.0 mm 0.00 in0.0 mm 0.00 in0.0 mm
02:30 AM 38.5°F3.6°C 37.2°F2.9°C 95% 5.0 mph S8.0 kmh S 9.0 mph14.5 kmh 29.52 in999.7 mb 0.00 in0.0 mm 0.00 in0.0 mm 0.00 in0.0 mm
02:45 AM 38.5°F3.6°C 37.2°F2.9°C 95% 5.0 mph S8.0 kmh S 10.0 mph16.1 kmh 29.52 in999.7 mb 0.01 in0.3 mm 0.04 in1.0 mm 0.01 in0.3 mm
03:00 AM 38.7°F3.7°C 37.4°F3.0°C 95% 4.0 mph SSW6.4 kmh SSW 9.0 mph14.5 kmh 29.52 in999.7 mb 0.01 in0.3 mm 0.00 in0.0 mm 0.01 in0.3 mm
03:15 AM 38.7°F3.7°C 37.4°F3.0°C 95% 5.0 mph S8.0 kmh S 10.0 mph16.1 kmh 29.51 in999.3 mb 0.01 in0.3 mm 0.00 in0.0 mm 0.01 in0.3 mm
03:30 AM 38.5°F3.6°C 37.2°F2.9°C 95% 5.0 mph S8.0 kmh S 11.0 mph17.7 kmh 29.51 in999.3 mb 0.01 in0.3 mm 0.00 in0.0 mm 0.01 in0.3 mm
03:45 AM 38.5°F3.6°C 37.2°F2.9°C 95% 6.0 mph S9.7 kmh S 10.0 mph16.1 kmh 29.51 in999.3 mb 0.00 in0.0 mm 0.00 in0.0 mm 0.01 in0.3 mm
04:00 AM 38.5°F3.6°C 36.9°F2.7°C 94% 5.0 mph S8.0 kmh S 9.0 mph14.5 kmh 29.51 in999.3 mb 0.00 in0.0 mm 0.00 in0.0 mm 0.01 in0.3 mm
04:15 AM 38.7°F3.7°C 37.1°F2.8°C 94% 5.0 mph S8.0 kmh S 10.0 mph16.1 kmh 29.50 in999.0 mb 0.00 in0.0 mm 0.00 in0.0 mm 0.01 in0.3 mm
04:30 AM 38.8°F3.8°C 37.3°F2.9°C 94% 6.0 mph S9.7 kmh S 11.0 mph17.7 kmh 29.50 in999.0 mb 0.00 in0.0 mm 0.00 in0.0 mm 0.01 in0.3 mm
04:45 AM 39.2°F4.0°C 37.6°F3.1°C 94% 7.0 mph S11.3 kmh S 12.0 mph19.3 kmh 29.49 in998.6 mb 0.00 in0.0 mm 0.00 in0.0 mm 0.01 in0.3 mm
05:00 AM 39.7°F4.3°C 38.2°F3.4°C 94% 7.0 mph S11.3 kmh S 12.0 mph19.3 kmh 29.49 in998.6 mb 0.00 in0.0 mm 0.00 in0.0 mm 0.01 in0.3 mm
05:15 AM 39.7°F4.3°C 38.2°F3.4°C 94% 5.0 mph S8.0 kmh S 10.0 mph16.1 kmh 29.48 in998.3 mb 0.00 in0.0 mm 0.00 in0.0 mm 0.01 in0.3 mm
05:30 AM 40.1°F4.5°C 38.5°F3.6°C 94% 7.0 mph S11.3 kmh S 11.0 mph17.7 kmh 29.48 in998.3 mb 0.00 in0.0 mm 0.00 in0.0 mm 0.01 in0.3 mm
05:45 AM 40.5°F4.7°C 38.6°F3.7°C 93% 7.0 mph S11.3 kmh S 13.0 mph20.9 kmh 29.47 in998.0 mb 0.00 in0.0 mm 0.00 in0.0 mm 0.01 in0.3 mm
06:00 AM 40.5°F4.7°C 38.6°F3.7°C 93% 5.0 mph S8.0 kmh S 10.0 mph16.1 kmh 29.46 in997.6 mb 0.00 in0.0 mm 0.00 in0.0 mm 0.01 in0.3 mm
06:15 AM 40.3°F4.6°C 38.4°F3.6°C 93% 4.0 mph SSE6.4 kmh SSE 7.0 mph11.3 kmh 29.46 in997.6 mb 0.00 in0.0 mm 0.00 in0.0 mm 0.01 in0.3 mm
06:30 AM 40.5°F4.7°C 38.6°F3.7°C 93% 6.0 mph S9.7 kmh S 10.0 mph16.1 kmh 29.45 in997.3 mb 0.00 in0.0 mm 0.00 in0.0 mm 0.01 in0.3 mm
06:45 AM 40.6°F4.8°C 38.8°F3.8°C 93% 5.0 mph S8.0 kmh S 13.0 mph20.9 kmh 29.45 in997.3 mb 0.00 in0.0 mm 0.00 in0.0 mm 0.01 in0.3 mm
07:00 AM 40.6°F4.8°C 38.8°F3.8°C 93% 6.0 mph S9.7 kmh S 10.0 mph16.1 kmh 29.44 in997.0 mb 0.00 in0.0 mm 0.00 in0.0 mm 0.01 in0.3 mm
07:15 AM 40.6°F4.8°C 38.8°F3.8°C 93% 7.0 mph S11.3 kmh S 14.0 mph22.5 kmh 29.43 in996.6 mb 0.00 in0.0 mm 0.00 in0.0 mm 0.01 in0.3 mm
07:30 AM 40.6°F4.8°C 38.8°F3.8°C 93% 8.0 mph S12.9 kmh S 12.0 mph19.3 kmh 29.42 in996.3 mb 0.00 in0.0 mm 0.00 in0.0 mm 0.01 in0.3 mm
07:45 AM 40.6°F4.8°C 38.8°F3.8°C 93% 8.0 mph S12.9 kmh S 12.0 mph19.3 kmh 29.41 in995.9 mb 0.00 in0.0 mm 0.00 in0.0 mm 0.01 in0.3 mm
08:00 AM 40.6°F4.8°C 38.8°F3.8°C 93% 8.0 mph S12.9 kmh S 13.0 mph20.9 kmh 29.41 in995.9 mb 0.00 in0.0 mm 0.00 in0.0 mm 0.01 in0.3 mm
08:15 AM 40.8°F4.9°C 39.0°F3.9°C 93% 10.0 mph S16.1 kmh S 16.0 mph25.7 kmh 29.40 in995.6 mb 0.00 in0.0 mm 0.00 in0.0 mm 0.01 in0.3 mm
08:30 AM 40.8°F4.9°C 39.0°F3.9°C 93% 8.0 mph S12.9 kmh S 14.0 mph22.5 kmh 29.39 in995.3 mb 0.00 in0.0 mm 0.00 in0.0 mm 0.01 in0.3 mm
08:45 AM 41.2°F5.1°C 39.3°F4.1°C 93% 8.0 mph S12.9 kmh S 14.0 mph22.5 kmh 29.38 in994.9 mb 0.00 in0.0 mm 0.00 in0.0 mm 0.01 in0.3 mm
09:00 AM 41.4°F5.2°C 39.5°F4.2°C 93% 9.0 mph S14.5 kmh S 17.0 mph27.4 kmh 29.37 in994.6 mb 0.00 in0.0 mm 0.00 in0.0 mm 0.01 in0.3 mm
09:15 AM 41.5°F5.3°C 39.7°F4.3°C 93% 9.0 mph S14.5 kmh S 16.0 mph25.7 kmh 29.36 in994.2 mb 0.00 in0.0 mm 0.00 in0.0 mm 0.01 in0.3 mm
09:30 AM 41.9°F5.5°C 40.0°F4.4°C 93% 10.0 mph S16.1 kmh S 18.0 mph29.0 kmh 29.35 in993.9 mb 0.00 in0.0 mm 0.00 in0.0 mm 0.01 in0.3 mm
09:45 AM 42.3°F5.7°C 40.1°F4.5°C 92% 9.0 mph S14.5 kmh S 15.0 mph24.1 kmh 29.34 in993.6 mb 0.00 in0.0 mm 0.00 in0.0 mm 0.01 in0.3 mm
10:00 AM 42.4°F5.8°C 40.3°F4.6°C 92% 9.0 mph S14.5 kmh S 16.0 mph25.7 kmh 29.33 in993.2 mb 0.00 in0.0 mm 0.00 in0.0 mm 0.01 in0.3 mm
10:15 AM 42.8°F6.0°C 40.6°F4.8°C 92% 12.0 mph S19.3 kmh S 18.0 mph29.0 kmh 29.32 in992.9 mb 0.00 in0.0 mm 0.00 in0.0 mm 0.01 in0.3 mm
10:30 AM 43.2°F6.2°C 41.0°F5.0°C 92% 10.0 mph S16.1 kmh S 18.0 mph29.0 kmh 29.31 in992.6 mb 0.00 in0.0 mm 0.00 in0.0 mm 0.01 in0.3 mm
10:45 AM 43.2°F6.2°C 40.7°F4.8°C 91% 11.0 mph S17.7 kmh S 20.0 mph32.2 kmh 29.30 in992.2 mb 0.00 in0.0 mm 0.00 in0.0 mm 0.01 in0.3 mm
11:00 AM 43.5°F6.4°C 41.1°F5.1°C 91% 12.0 mph S19.3 kmh S 22.0 mph35.4 kmh 29.28 in991.5 mb 0.00 in0.0 mm 0.00 in0.0 mm 0.01 in0.3 mm
11:15 AM 43.7°F6.5°C 41.0°F5.0°C 90% 12.0 mph S19.3 kmh S 21.0 mph33.8 kmh 29.27 in991.2 mb 0.00 in0.0 mm 0.00 in0.0 mm 0.01 in0.3 mm
11:30 AM 43.3°F6.3°C 40.9°F4.9°C 91% 10.0 mph S16.1 kmh S 20.0 mph32.2 kmh 29.25 in990.5 mb 0.00 in0.0 mm 0.00 in0.0 mm 0.01 in0.3 mm
11:45 AM 43.0°F6.1°C 40.5°F4.7°C 91% 11.0 mph S17.7 kmh S 20.0 mph32.2 kmh 29.24 in990.2 mb 0.01 in0.3 mm 0.04 in1.0 mm 0.02 in0.5 mm
12:00 PM 42.8°F6.0°C 40.6°F4.8°C 92% 8.0 mph S12.9 kmh S 14.0 mph22.5 kmh 29.23 in989.8 mb 0.03 in0.8 mm 0.03 in0.8 mm 0.04 in1.0 mm
12:15 PM 42.6°F5.9°C 40.7°F4.8°C 93% 9.0 mph S14.5 kmh S 17.0 mph27.4 kmh 29.23 in989.8 mb 0.08 in2.0 mm 0.20 in5.1 mm 0.09 in2.3 mm
12:30 PM 42.4°F5.8°C 40.6°F4.8°C 93% 6.0 mph SSW9.7 kmh SSW 11.0 mph17.7 kmh 29.22 in989.5 mb 0.12 in3.0 mm 0.16 in4.1 mm 0.13 in3.3 mm
12:45 PM 42.4°F5.8°C 40.6°F4.8°C 93% 8.0 mph WSW12.9 kmh WSW 21.0 mph33.8 kmh 29.23 in989.8 mb 0.14 in3.6 mm 0.08 in2.0 mm 0.16 in4.1 mm
01:00 PM 42.1°F5.6°C 40.2°F4.6°C 93% 5.0 mph WSW8.0 kmh WSW 14.0 mph22.5 kmh 29.22 in989.5 mb 0.13 in3.3 mm 0.00 in0.0 mm 0.17 in4.3 mm
01:15 PM 41.9°F5.5°C 40.0°F4.4°C 93% 3.0 mph W4.8 kmh W 8.0 mph12.9 kmh 29.23 in989.8 mb 0.10 in2.5 mm 0.00 in0.0 mm 0.19 in4.8 mm
01:30 PM 41.7°F5.4°C 39.8°F4.3°C 93% 5.0 mph WSW8.0 kmh WSW 12.0 mph19.3 kmh 29.22 in989.5 mb 0.08 in2.0 mm 0.00 in0.0 mm 0.21 in5.3 mm
01:45 PM 42.1°F5.6°C 40.5°F4.7°C 94% 4.0 mph SW6.4 kmh SW 10.0 mph16.1 kmh 29.22 in989.5 mb 0.05 in1.3 mm 0.00 in0.0 mm 0.21 in5.3 mm
02:00 PM 42.1°F5.6°C 40.5°F4.7°C 94% 3.0 mph SW4.8 kmh SW 9.0 mph14.5 kmh 29.21 in989.2 mb 0.05 in1.3 mm 0.00 in0.0 mm 0.22 in5.6 mm
02:15 PM 42.1°F5.6°C 40.5°F4.7°C 94% 5.0 mph W8.0 kmh W 20.0 mph32.2 kmh 29.22 in989.5 mb 0.04 in1.0 mm 0.00 in0.0 mm 0.23 in5.8 mm
02:30 PM 41.2°F5.1°C 39.0°F3.9°C 92% 11.0 mph W17.7 kmh W 24.0 mph38.6 kmh 29.21 in989.2 mb 0.02 in0.5 mm 0.00 in0.0 mm 0.23 in5.8 mm
02:45 PM 41.0°F5.0°C 38.0°F3.3°C 89% 11.0 mph W17.7 kmh W 21.0 mph33.8 kmh 29.21 in989.2 mb 0.02 in0.5 mm 0.00 in0.0 mm 0.23 in5.8 mm
03:00 PM 40.8°F4.9°C 37.8°F3.2°C 89% 8.0 mph W12.9 kmh W 18.0 mph29.0 kmh 29.21 in989.2 mb 0.01 in0.3 mm 0.00 in0.0 mm 0.23 in5.8 mm
03:15 PM 41.0°F5.0°C 38.3°F3.5°C 90% 7.0 mph WNW11.3 kmh WNW 13.0 mph20.9 kmh 29.21 in989.2 mb 0.00 in0.0 mm 0.00 in0.0 mm 0.23 in5.8 mm
03:30 PM 40.8°F4.9°C 38.1°F3.4°C 90% 4.0 mph W6.4 kmh W 11.0 mph17.7 kmh 29.20 in988.8 mb 0.00 in0.0 mm 0.00 in0.0 mm 0.23 in5.8 mm
03:45 PM 40.5°F4.7°C 38.0°F3.3°C 91% 3.0 mph WSW4.8 kmh WSW 9.0 mph14.5 kmh 29.20 in988.8 mb 0.00 in0.0 mm 0.00 in0.0 mm 0.23 in5.8 mm
04:00 PM 40.5°F4.7°C 37.8°F3.2°C 90% 5.0 mph WSW8.0 kmh WSW 10.0 mph16.1 kmh 29.21 in989.2 mb 0.00 in0.0 mm 0.00 in0.0 mm 0.23 in5.8 mm
04:15 PM 39.9°F4.4°C 37.2°F2.9°C 90% 4.0 mph SW6.4 kmh SW 11.0 mph17.7 kmh 29.20 in988.8 mb 0.00 in0.0 mm 0.00 in0.0 mm 0.23 in5.8 mm
04:30 PM 39.4°F4.1°C 36.7°F2.6°C 90% 4.0 mph SW6.4 kmh SW 11.0 mph17.7 kmh 29.20 in988.8 mb 0.00 in0.0 mm 0.00 in0.0 mm 0.23 in5.8 mm
04:45 PM 39.4°F4.1°C 37.0°F2.8°C 91% 4.0 mph WSW6.4 kmh WSW 11.0 mph17.7 kmh 29.20 in988.8 mb 0.00 in0.0 mm 0.00 in0.0 mm 0.23 in5.8 mm
05:00 PM 39.4°F4.1°C 36.7°F2.6°C 90% 5.0 mph SW8.0 kmh SW 15.0 mph24.1 kmh 29.20 in988.8 mb 0.00 in0.0 mm 0.00 in0.0 mm 0.23 in5.8 mm
05:15 PM 39.6°F4.2°C 36.9°F2.7°C 90% 5.0 mph WSW8.0 kmh WSW 12.0 mph19.3 kmh 29.19 in988.5 mb 0.00 in0.0 mm 0.00 in0.0 mm 0.23 in5.8 mm
05:30 PM 39.2°F4.0°C 36.2°F2.3°C 89% 4.0 mph SSW6.4 kmh SSW 11.0 mph17.7 kmh 29.19 in988.5 mb 0.00 in0.0 mm 0.00 in0.0 mm 0.23 in5.8 mm
05:45 PM 38.8°F3.8°C 35.9°F2.2°C 89% 6.0 mph S9.7 kmh S 12.0 mph19.3 kmh 29.18 in988.1 mb 0.00 in0.0 mm 0.00 in0.0 mm 0.23 in5.8 mm
06:00 PM 38.3°F3.5°C 35.3°F1.8°C 89% 6.0 mph S9.7 kmh S 10.0 mph16.1 kmh 29.17 in987.8 mb 0.00 in0.0 mm 0.00 in0.0 mm 0.23 in5.8 mm
06:15 PM 38.1°F3.4°C 35.2°F1.8°C 89% 5.0 mph S8.0 kmh S 10.0 mph16.1 kmh 29.16 in987.5 mb 0.00 in0.0 mm 0.00 in0.0 mm 0.23 in5.8 mm
06:30 PM 38.1°F3.4°C 35.4°F1.9°C 90% 5.0 mph S8.0 kmh S 9.0 mph14.5 kmh 29.15 in987.1 mb 0.00 in0.0 mm 0.00 in0.0 mm 0.23 in5.8 mm
06:45 PM 38.3°F3.5°C 35.3°F1.8°C 89% 5.0 mph S8.0 kmh S 8.0 mph12.9 kmh 29.14 in986.8 mb 0.00 in0.0 mm 0.00 in0.0 mm 0.23 in5.8 mm
07:00 PM 38.5°F3.6°C 35.5°F1.9°C 89% 6.0 mph S9.7 kmh S 13.0 mph20.9 kmh 29.14 in986.8 mb 0.00 in0.0 mm 0.00 in0.0 mm 0.23 in5.8 mm
07:15 PM 38.7°F3.7°C 35.4°F1.9°C 88% 6.0 mph SSW9.7 kmh SSW 13.0 mph20.9 kmh 29.14 in986.8 mb 0.00 in0.0 mm 0.00 in0.0 mm 0.23 in5.8 mm
07:30 PM 38.8°F3.8°C 35.6°F2.0°C 88% 6.0 mph SW9.7 kmh SW 16.0 mph25.7 kmh 29.14 in986.8 mb 0.01 in0.3 mm 0.04 in1.0 mm 0.24 in6.1 mm
07:45 PM 38.1°F3.4°C 35.4°F1.9°C 90% 6.0 mph WSW9.7 kmh WSW 15.0 mph24.1 kmh 29.14 in986.8 mb 0.02 in0.5 mm 0.04 in1.0 mm 0.25 in6.4 mm
08:00 PM 37.4°F3.0°C 35.0°F1.7°C 91% 5.0 mph WSW8.0 kmh WSW 13.0 mph20.9 kmh 29.14 in986.8 mb 0.04 in1.0 mm 0.03 in0.8 mm 0.27 in6.9 mm
08:15 PM 37.0°F2.8°C 34.9°F1.6°C 92% 4.0 mph SW6.4 kmh SW 10.0 mph16.1 kmh 29.14 in986.8 mb 0.05 in1.3 mm 0.04 in1.0 mm 0.28 in7.1 mm
08:30 PM 36.0°F2.2°C 33.9°F1.1°C 92% 5.0 mph SSW8.0 kmh SSW 11.0 mph17.7 kmh 29.15 in987.1 mb 0.06 in1.5 mm 0.04 in1.0 mm 0.30 in7.6 mm
08:45 PM 34.9°F1.6°C 32.8°F0.4°C 92% 3.0 mph SW4.8 kmh SW 10.0 mph16.1 kmh 29.15 in987.1 mb 0.05 in1.3 mm 0.00 in0.0 mm 0.30 in7.6 mm
09:00 PM 34.5°F1.4°C 32.7°F0.4°C 93% 3.0 mph SW4.8 kmh SW 8.0 mph12.9 kmh 29.15 in987.1 mb 0.03 in0.8 mm 0.00 in0.0 mm 0.30 in7.6 mm
09:15 PM 35.1°F1.7°C 33.2°F0.7°C 93% 5.0 mph W8.0 kmh W 12.0 mph19.3 kmh 29.16 in987.5 mb 0.03 in0.8 mm 0.00 in0.0 mm 0.31 in7.9 mm
09:30 PM 35.4°F1.9°C 33.9°F1.1°C 94% 3.0 mph SSW4.8 kmh SSW 7.0 mph11.3 kmh 29.15 in987.1 mb 0.02 in0.5 mm 0.00 in0.0 mm 0.32 in8.1 mm
09:45 PM 35.4°F1.9°C 33.9°F1.1°C 94% 2.0 mph SSW3.2 kmh SSW 6.0 mph9.7 kmh 29.15 in987.1 mb 0.02 in0.5 mm 0.00 in0.0 mm 0.32 in8.1 mm
10:00 PM 36.0°F2.2°C 34.4°F1.3°C 94% 8.0 mph NW12.9 kmh NW 17.0 mph27.4 kmh 29.16 in987.5 mb 0.05 in1.3 mm 0.04 in1.0 mm 0.35 in8.9 mm
10:15 PM 36.9°F2.7°C 35.3°F1.8°C 94% 10.0 mph WNW16.1 kmh WNW 18.0 mph29.0 kmh 29.17 in987.8 mb 0.06 in1.5 mm 0.04 in1.0 mm 0.37 in9.4 mm
10:30 PM 37.4°F3.0°C 35.8°F2.1°C 94% 8.0 mph W12.9 kmh W 20.0 mph32.2 kmh 29.18 in988.1 mb 0.06 in1.5 mm 0.00 in0.0 mm 0.38 in9.7 mm
10:45 PM 37.9°F3.3°C 36.1°F2.3°C 93% 7.0 mph W11.3 kmh W 14.0 mph22.5 kmh 29.18 in988.1 mb 0.05 in1.3 mm 0.00 in0.0 mm 0.38 in9.7 mm
11:00 PM 38.1°F3.4°C 35.4°F1.9°C 90% 8.0 mph W12.9 kmh W 13.0 mph20.9 kmh 29.17 in987.8 mb 0.04 in1.0 mm 0.00 in0.0 mm 0.39 in9.9 mm
11:15 PM 38.1°F3.4°C 35.2°F1.8°C 89% 4.0 mph WSW6.4 kmh WSW 12.0 mph19.3 kmh 29.17 in987.8 mb 0.02 in0.5 mm 0.00 in0.0 mm 0.39 in9.9 mm
11:30 PM 37.8°F3.2°C 35.1°F1.7°C 90% 4.0 mph SW6.4 kmh SW 10.0 mph16.1 kmh 29.17 in987.8 mb 0.01 in0.3 mm 0.00 in0.0 mm 0.39 in9.9 mm
11:45 PM 37.0°F2.8°C 34.7°F1.5°C 91% 7.0 mph WSW11.3 kmh WSW 21.0 mph33.8 kmh 29.17 in987.8 mb 0.01 in0.3 mm 0.00 in0.0 mm 0.40 in10.2 mm